Time;durP1;ratioP1;P1;durP2;ratioP2;P2;SDS_P1;SDS_P2;PMS_P1;PMS_P2;Temp;Humidity;BMP_temperature;BMP_pressure;BME280_temperature;BME280_humidity;BME280_pressure;Samples;Min_cycle;Max_cycle;Signal;HPM_P1;HPM_P2
2022/08/07 00:00:12;;;;;;;5.18;3.60;;;13.60;99.90;;;;;;4976582;28;20162;-79
2022/08/07 00:02:37;;;;;;;7.75;4.13;;;13.60;99.90;;;;;;4948902;28;20054;-78
2022/08/07 00:05:04;;;;;;;6.13;4.18;;;13.60;99.90;;;;;;4980753;28;20053;-78
2022/08/07 00:07:29;;;;;;;6.10;3.42;;;13.50;99.90;;;;;;4980698;28;20046;-77
2022/08/07 00:09:55;;;;;;;6.80;4.40;;;13.50;99.90;;;;;;4964274;28;20375;-78
2022/08/07 00:12:21;;;;;;;6.10;4.20;;;13.50;99.90;;;;;;4980028;28;20066;-79
2022/08/07 00:14:46;;;;;;;8.60;4.18;;;13.50;99.90;;;;;;4980537;28;20112;-79
2022/08/07 00:17:12;;;;;;;6.63;4.53;;;13.40;99.90;;;;;;4996819;28;20046;-78
2022/08/07 00:19:38;;;;;;;7.00;4.55;;;13.40;99.90;;;;;;4981245;28;20475;-79
2022/08/07 00:22:04;;;;;;;7.70;4.40;;;13.40;99.90;;;;;;4964391;28;20085;-79
2022/08/07 00:24:29;;;;;;;7.55;4.88;;;13.40;99.90;;;;;;4996527;28;20049;-78
2022/08/07 00:26:55;;;;;;;7.60;5.43;;;13.40;99.90;;;;;;4980232;28;20133;-78
2022/08/07 00:29:24;;;;;;;7.75;5.15;;;13.40;99.90;;;;;;4980277;28;20054;-78
2022/08/07 00:31:52;;;;;;;7.75;5.53;;;13.40;99.90;;;;;;4981569;28;20138;-78
2022/08/07 00:34:18;;;;;;;10.55;5.35;;;13.40;99.90;;;;;;4996459;28;20043;-79
2022/08/07 00:36:43;;;;;;;7.38;4.82;;;13.30;99.90;;;;;;4980471;28;20053;-78
2022/08/07 00:39:11;;;;;;;9.38;5.32;;;13.30;99.90;;;;;;4997196;28;20133;-79
2022/08/07 00:41:38;;;;;;;8.13;5.28;;;13.30;99.90;;;;;;4996271;28;20046;-79
2022/08/07 00:44:04;;;;;;;7.82;5.30;;;13.30;99.90;;;;;;4995985;28;20476;-79
2022/08/07 00:46:30;;;;;;;9.00;5.13;;;13.30;99.90;;;;;;4979675;28;20099;-78
2022/08/07 00:49:00;;;;;;;9.98;5.28;;;13.30;99.90;;;;;;4963919;28;20133;-78
2022/08/07 00:51:27;;;;;;;7.22;5.07;;;13.30;99.90;;;;;;4979913;28;20038;-79
2022/08/07 00:53:53;;;;;;;8.32;4.90;;;13.20;99.90;;;;;;4979816;28;20085;-78
2022/08/07 00:56:20;;;;;;;8.02;5.00;;;13.20;99.90;;;;;;4963784;28;20085;-79
2022/08/07 00:58:46;;;;;;;8.10;4.95;;;13.20;99.90;;;;;;4996008;28;20424;-79
2022/08/07 01:01:12;;;;;;;8.07;5.28;;;13.20;99.90;;;;;;4980303;28;20188;-79
2022/08/07 01:03:38;;;;;;;8.32;4.85;;;13.10;99.90;;;;;;4964486;28;20128;-79
2022/08/07 01:06:04;;;;;;;7.63;4.38;;;13.20;99.90;;;;;;4995819;28;20081;-78
2022/08/07 01:08:30;;;;;;;7.00;5.00;;;13.10;99.90;;;;;;4963884;28;20083;-78
2022/08/07 01:10:56;;;;;;;7.35;4.75;;;13.10;99.90;;;;;;4979276;28;20062;-79
2022/08/07 01:13:22;;;;;;;6.32;4.63;;;13.10;99.90;;;;;;4979354;28;20055;-78
2022/08/07 01:15:50;;;;;;;8.60;4.80;;;13.10;99.90;;;;;;4995388;28;20046;-78
2022/08/07 01:18:16;;;;;;;8.32;4.68;;;13.10;99.90;;;;;;4979078;28;20054;-77
2022/08/07 01:20:45;;;;;;;7.43;5.00;;;13.10;99.90;;;;;;4995279;28;20046;-78
2022/08/07 01:23:11;;;;;;;6.35;4.53;;;13.10;99.90;;;;;;4995490;28;20125;-77
2022/08/07 01:25:39;;;;;;;8.07;4.95;;;13.00;99.90;;;;;;4963211;28;20058;-78
2022/08/07 01:28:05;;;;;;;8.70;4.72;;;13.00;99.90;;;;;;4963344;28;20520;-77
2022/08/07 01:30:31;;;;;;;9.27;5.35;;;13.00;99.90;;;;;;4979250;28;20078;-78
2022/08/07 01:32:58;;;;;;;7.88;5.55;;;13.00;99.90;;;;;;4996177;28;20383;-78
2022/08/07 01:35:24;;;;;;;8.55;5.03;;;13.00;99.90;;;;;;4978791;28;20548;-78
2022/08/07 01:37:50;;;;;;;7.55;5.30;;;13.00;99.90;;;;;;4996062;28;20043;-78
2022/08/07 01:40:20;;;;;;;8.32;5.18;;;13.00;99.90;;;;;;4995068;28;20046;-78
2022/08/07 01:42:46;;;;;;;7.38;5.18;;;13.00;99.90;;;;;;4978926;28;20038;-78
2022/08/07 01:45:12;;;;;;;7.53;5.18;;;12.90;99.90;;;;;;4979681;28;20058;-78
2022/08/07 01:47:38;;;;;;;7.72;5.47;;;12.90;99.90;;;;;;4979193;28;20057;-79
2022/08/07 01:50:04;;;;;;;8.43;4.80;;;12.90;99.90;;;;;;4978785;28;20054;-79
2022/08/07 01:52:33;;;;;;;6.70;5.00;;;12.90;99.90;;;;;;4979607;28;20104;-78
2022/08/07 01:55:00;;;;;;;10.63;5.63;;;12.80;99.90;;;;;;4994926;28;20042;-78
2022/08/07 01:57:34;;;;;;;7.53;5.45;;;12.80;99.90;;;;;;4995024;28;20053;-78
2022/08/07 02:00:10;;;;;;;9.57;5.72;;;12.80;99.90;;;;;;4995666;28;20112;-79
2022/08/07 02:02:53;;;;;;;8.35;5.75;;;12.80;99.90;;;;;;4978998;28;20050;-79
2022/08/07 02:05:26;;;;;;;;;;;12.80;99.90;;;;;;4980590;28;20046;-80
2022/08/07 02:07:55;;;;;;;7.90;5.20;;;12.80;99.90;;;;;;4978558;28;19937;-80
2022/08/07 02:10:26;;;;;;;8.95;5.75;;;12.70;99.90;;;;;;4994614;28;20042;-80
2022/08/07 02:12:55;;;;;;;8.15;5.53;;;12.70;99.90;;;;;;4994609;28;20077;-79
2022/08/07 02:15:24;;;;;;;9.55;5.75;;;12.70;99.90;;;;;;4994568;28;20487;-80
2022/08/07 02:17:52;;;;;;;9.30;5.72;;;12.70;99.90;;;;;;4978555;28;20047;-80
2022/08/07 02:20:19;;;;;;;7.28;5.03;;;12.70;99.90;;;;;;4995108;28;20042;-80
2022/08/07 02:22:45;;;;;;;10.45;6.00;;;12.70;99.90;;;;;;4978043;28;20053;-79
2022/08/07 02:25:14;;;;;;;8.43;5.90;;;12.70;99.90;;;;;;4961790;28;20050;-80
2022/08/07 02:27:41;;;;;;;7.38;4.95;;;12.70;99.90;;;;;;4995052;28;20188;-79
2022/08/07 02:30:08;;;;;;;7.65;5.60;;;12.70;99.90;;;;;;4994276;28;20054;-80
2022/08/07 02:32:37;;;;;;;8.27;5.55;;;12.70;99.90;;;;;;4962317;28;20043;-79
2022/08/07 02:35:08;;;;;;;8.45;5.30;;;12.60;99.90;;;;;;4962480;28;20137;-79
2022/08/07 02:37:36;;;;;;;9.13;5.47;;;12.60;99.90;;;;;;4994479;28;20070;-79
2022/08/07 02:40:04;;;;;;;9.02;5.95;;;12.60;99.90;;;;;;4994316;28;20077;-79
2022/08/07 02:42:32;;;;;;;9.75;5.43;;;12.60;99.90;;;;;;4994012;28;20050;-78
2022/08/07 02:44:59;;;;;;;7.95;5.32;;;12.60;99.90;;;;;;4978548;28;20057;-79
2022/08/07 02:47:25;;;;;;;7.95;5.55;;;12.50;99.90;;;;;;4978540;28;20050;-78
2022/08/07 02:49:52;;;;;;;9.25;5.78;;;12.60;99.90;;;;;;4977801;28;20045;-79
2022/08/07 02:52:40;;;;;;;10.52;5.85;;;12.50;99.90;;;;;;4977525;28;20077;-80
2022/08/07 02:55:14;;;;;;;11.48;5.35;;;12.50;99.90;;;;;;4993853;28;20046;-80
2022/08/07 02:57:41;;;;;;;9.43;5.78;;;12.50;99.90;;;;;;4977885;28;20054;-79
2022/08/07 03:00:07;;;;;;;8.30;5.55;;;12.40;99.90;;;;;;4961721;28;20392;-79
2022/08/07 03:02:35;;;;;;;7.53;5.28;;;12.40;99.90;;;;;;4994664;28;20050;-80
2022/08/07 03:05:02;;;;;;;9.35;6.10;;;12.40;99.90;;;;;;4994695;28;20477;-79
2022/08/07 03:07:29;;;;;;;8.35;5.72;;;12.40;99.90;;;;;;4961871;28;20092;-78
2022/08/07 03:09:55;;;;;;;9.35;5.93;;;12.40;99.90;;;;;;4945541;28;20054;-79
2022/08/07 03:12:21;;;;;;;9.20;6.30;;;12.40;99.90;;;;;;4993474;28;20133;-78
2022/08/07 03:14:48;;;;;;;9.40;6.03;;;12.40;99.90;;;;;;4993302;28;20093;-78
2022/08/07 03:17:15;;;;;;;10.07;5.78;;;12.40;99.90;;;;;;4977518;28;20058;-78
2022/08/07 03:19:41;;;;;;;9.17;5.73;;;12.30;99.90;;;;;;4994173;28;20042;-79
2022/08/07 03:22:07;;;;;;;8.10;6.00;;;12.30;99.90;;;;;;4962012;28;20061;-78
2022/08/07 03:24:33;;;;;;;7.75;5.60;;;12.30;99.90;;;;;;4977909;28;20054;-80
2022/08/07 03:27:01;;;;;;;8.35;5.45;;;12.30;99.90;;;;;;4993289;28;20086;-78
2022/08/07 03:29:43;;;;;;;9.23;6.30;;;12.30;99.90;;;;;;4977529;28;20525;-78
2022/08/07 03:32:11;;;;;;;9.80;5.65;;;12.30;99.90;;;;;;4993519;28;20105;-78
2022/08/07 03:34:38;;;;;;;8.57;5.68;;;12.30;99.90;;;;;;4977139;28;20134;-78
2022/08/07 03:37:04;;;;;;;10.10;5.90;;;12.30;99.90;;;;;;4977142;28;20086;-78
2022/08/07 03:39:34;;;;;;;8.25;6.00;;;12.30;99.90;;;;;;4977257;28;20050;-78
2022/08/07 03:42:05;;;;;;;9.13;5.60;;;12.30;99.90;;;;;;4992910;28;20120;-78
2022/08/07 03:44:36;;;;;;;8.07;5.80;;;12.20;99.90;;;;;;4977363;28;20054;-79
2022/08/07 03:47:03;;;;;;;8.27;5.70;;;12.20;99.90;;;;;;4976334;28;20043;-77
2022/08/07 03:49:29;;;;;;;8.02;5.85;;;12.20;99.90;;;;;;4993136;28;20105;-78
2022/08/07 03:51:57;;;;;;;10.30;6.38;;;12.20;99.90;;;;;;4993055;28;20043;-78
2022/08/07 03:54:23;;;;;;;8.15;5.78;;;12.10;99.90;;;;;;4993088;28;20046;-78
2022/08/07 03:56:51;;;;;;;9.60;6.40;;;12.10;99.90;;;;;;4976881;28;20431;-78
2022/08/07 03:59:17;;;;;;;8.85;6.80;;;12.10;99.90;;;;;;4992777;28;20495;-78
2022/08/07 04:01:45;;;;;;;11.02;6.10;;;12.10;99.90;;;;;;4992733;28;20500;-78
2022/08/07 04:04:11;;;;;;;8.45;5.93;;;12.20;99.90;;;;;;4993044;28;20141;-79
2022/08/07 04:06:39;;;;;;;9.70;6.75;;;12.10;99.90;;;;;;4976769;28;20459;-79
2022/08/07 04:09:08;;;;;;;9.43;6.20;;;12.10;99.90;;;;;;4976794;28;20057;-78
2022/08/07 04:11:35;;;;;;;8.50;5.47;;;12.10;99.90;;;;;;4992603;28;20074;-79
2022/08/07 04:14:02;;;;;;;8.32;5.95;;;12.10;99.90;;;;;;4960460;28;20517;-78
2022/08/07 04:16:28;;;;;;;7.95;5.70;;;12.10;99.90;;;;;;4992863;28;20125;-78
2022/08/07 04:18:54;;;;;;;8.10;5.57;;;12.10;99.90;;;;;;4976727;28;20608;-79
2022/08/07 04:21:20;;;;;;;7.53;5.80;;;12.10;99.90;;;;;;4976586;28;20104;-78
2022/08/07 04:23:46;;;;;;;7.35;5.93;;;12.10;99.90;;;;;;4993684;28;20046;-78
2022/08/07 04:26:13;;;;;;;8.60;5.63;;;12.10;99.90;;;;;;4976042;28;20048;-79
2022/08/07 04:28:40;;;;;;;8.55;5.78;;;12.20;99.90;;;;;;4992821;28;20069;-79
2022/08/07 04:31:07;;;;;;;7.78;5.55;;;12.10;99.90;;;;;;4960569;28;20375;-79
2022/08/07 04:33:34;;;;;;;8.55;5.82;;;12.10;99.90;;;;;;4992791;28;20089;-78
2022/08/07 04:36:07;;;;;;;8.10;5.40;;;12.10;99.90;;;;;;4976541;28;20050;-78
2022/08/07 04:38:34;;;;;;;9.00;5.78;;;12.10;99.90;;;;;;4976344;28;20141;-78
2022/08/07 04:41:00;;;;;;;8.57;6.15;;;12.10;99.90;;;;;;4977328;28;20125;-78
2022/08/07 04:43:29;;;;;;;11.77;6.43;;;12.10;99.90;;;;;;4992705;28;20216;-78
2022/08/07 04:46:20;;;;;;;8.48;5.75;;;12.10;99.90;;;;;;4992676;28;20082;-78
2022/08/07 04:49:04;;;;;;;8.57;6.18;;;12.10;99.90;;;;;;4980702;28;20050;-78
2022/08/07 04:52:11;;;;;;;13.00;6.10;;;12.10;99.90;;;;;;4997080;28;20050;-78
2022/08/07 04:55:09;;;;;;;8.80;6.07;;;12.20;99.90;;;;;;4959800;28;20054;-78
2022/08/07 04:57:50;;;;;;;9.25;6.15;;;12.20;99.90;;;;;;4996247;28;20100;-79
2022/08/07 05:00:20;;;;;;;11.90;6.25;;;12.20;99.90;;;;;;4996216;28;20039;-80
2022/08/07 05:02:55;;;;;;;12.00;6.45;;;12.20;99.90;;;;;;4979727;28;20050;-79
2022/08/07 05:05:23;;;;;;;9.85;6.47;;;12.30;99.90;;;;;;4996218;28;20149;-78
2022/08/07 05:08:03;;;;;;;11.85;7.05;;;12.30;99.90;;;;;;4979706;28;20125;-78
2022/08/07 05:10:32;;;;;;;12.02;6.65;;;12.30;99.90;;;;;;4995640;28;20112;-77
2022/08/07 05:13:05;;;;;;;11.93;7.40;;;12.30;99.90;;;;;;4996601;28;20058;-78
2022/08/07 05:15:36;;;;;;;10.07;6.45;;;12.30;99.90;;;;;;4979132;28;20434;-78
2022/08/07 05:18:10;;;;;;;11.82;7.35;;;12.40;99.90;;;;;;4995391;28;20065;-79
2022/08/07 05:20:40;;;;;;;11.60;7.57;;;12.40;99.90;;;;;;4995494;28;20042;-78
2022/08/07 05:23:36;;;;;;;12.02;7.07;;;12.50;99.90;;;;;;4995838;28;20043;-78
2022/08/07 05:26:04;;;;;;;11.70;7.00;;;12.50;99.90;;;;;;4961985;28;20145;-78
2022/08/07 05:28:32;;;;;;;11.13;7.68;;;12.50;99.90;;;;;;4995716;28;20473;-77
2022/08/07 05:30:59;;;;;;;11.50;7.07;;;12.60;99.90;;;;;;4995412;28;20068;-78
2022/08/07 05:33:27;;;;;;;10.45;6.88;;;12.60;99.90;;;;;;4979217;28;20398;-78
2022/08/07 05:35:54;;;;;;;11.52;7.07;;;12.70;99.90;;;;;;4995374;28;20444;-79
2022/08/07 05:38:21;;;;;;;11.85;7.18;;;12.70;99.90;;;;;;4963951;28;20411;-79
2022/08/07 05:40:48;;;;;;;10.00;6.57;;;12.80;99.90;;;;;;4995106;28;20524;-79
2022/08/07 05:43:15;;;;;;;10.60;7.35;;;12.80;99.90;;;;;;4979788;28;20064;-78
2022/08/07 05:45:42;;;;;;;11.10;6.68;;;12.90;99.90;;;;;;4962831;28;20050;-78
2022/08/07 05:48:08;;;;;;;9.20;6.60;;;13.00;99.90;;;;;;4995430;28;20046;-79
2022/08/07 05:50:35;;;;;;;11.50;6.03;;;13.00;99.90;;;;;;4995074;28;20093;-78
2022/08/07 05:53:04;;;;;;;10.52;6.95;;;13.10;99.90;;;;;;4962917;28;20051;-80
2022/08/07 05:55:31;;;;;;;10.10;5.88;;;13.10;99.90;;;;;;4994940;28;20042;-79
2022/08/07 05:57:59;;;;;;;9.82;5.78;;;13.20;99.90;;;;;;4962300;28;20080;-79
2022/08/07 06:00:26;;;;;;;7.95;5.15;;;13.30;99.90;;;;;;4978455;28;20046;-78
2022/08/07 06:02:54;;;;;;;9.10;6.57;;;13.40;99.90;;;;;;4978633;28;20057;-80
2022/08/07 06:05:25;;;;;;;10.02;6.20;;;13.40;99.90;;;;;;4979654;28;20097;-79
2022/08/07 06:07:51;;;;;;;10.02;6.15;;;13.50;99.90;;;;;;4978380;28;20043;-79
2022/08/07 06:10:17;;;;;;;10.77;6.22;;;13.60;99.90;;;;;;4994568;28;20045;-78
2022/08/07 06:12:43;;;;;;;11.32;6.70;;;13.70;99.90;;;;;;4978162;28;20058;-79
2022/08/07 06:15:12;;;;;;;11.60;6.60;;;13.80;99.90;;;;;;4994597;28;20484;-79
2022/08/07 06:17:39;;;;;;;10.30;6.63;;;13.80;99.90;;;;;;4978377;28;20064;-79
2022/08/07 06:20:07;;;;;;;9.65;7.00;;;13.90;99.90;;;;;;4978268;28;20051;-80
2022/08/07 06:22:34;;;;;;;9.45;7.03;;;14.00;99.90;;;;;;4994417;28;20054;-79
2022/08/07 06:25:00;;;;;;;9.52;6.55;;;14.00;99.90;;;;;;4963217;28;20066;-80
2022/08/07 06:27:26;;;;;;;11.32;7.00;;;14.10;99.90;;;;;;4978317;28;20054;-79
2022/08/07 06:29:52;;;;;;;10.80;7.07;;;14.20;99.90;;;;;;4962961;28;20105;-79
2022/08/07 06:32:17;;;;;;;11.43;6.55;;;14.20;99.90;;;;;;4978182;28;20055;-80
2022/08/07 06:34:43;;;;;;;10.93;6.97;;;14.30;99.90;;;;;;4962891;28;20078;-80
2022/08/07 06:37:09;;;;;;;10.90;7.18;;;14.30;99.90;;;;;;4962130;28;20050;-79
2022/08/07 06:39:34;;;;;;;11.55;7.25;;;14.40;99.90;;;;;;4977929;28;20101;-79
2022/08/07 06:42:06;;;;;;;8.60;6.55;;;14.50;99.90;;;;;;4994027;28;20097;-79
2022/08/07 06:44:33;;;;;;;11.07;7.25;;;14.50;99.90;;;;;;4994916;28;20061;-79
2022/08/07 06:46:59;;;;;;;8.93;6.38;;;14.60;99.90;;;;;;4977825;28;20060;-79
2022/08/07 06:49:25;;;;;;;12.57;7.50;;;14.70;99.90;;;;;;4993775;28;20042;-79
2022/08/07 06:51:53;;;;;;;11.70;6.93;;;14.80;99.90;;;;;;4993918;28;20054;-79
2022/08/07 06:54:19;;;;;;;9.48;6.20;;;14.80;99.90;;;;;;4977744;28;20093;-78
2022/08/07 06:56:49;;;;;;;12.18;7.38;;;14.90;99.90;;;;;;4977352;28;20503;-79
2022/08/07 06:59:21;;;;;;;10.90;7.30;;;14.90;99.90;;;;;;4977353;28;20073;-79
2022/08/07 07:01:48;;;;;;;11.30;7.07;;;15.00;99.90;;;;;;4993562;28;20046;-79
2022/08/07 07:04:14;;;;;;;10.52;6.25;;;15.10;99.90;;;;;;4993710;28;20073;-80
2022/08/07 07:06:41;;;;;;;9.73;6.35;;;15.20;99.90;;;;;;4978299;28;20129;-79
2022/08/07 07:09:19;;;;;;;8.75;5.72;;;15.20;99.90;;;;;;4977942;28;20043;-79
2022/08/07 07:12:21;;;;;;;9.35;6.03;;;15.30;99.90;;;;;;4993315;28;20065;-80
2022/08/07 07:15:10;;;;;;;9.00;5.45;;;15.40;99.90;;;;;;4975070;28;20418;-79
2022/08/07 07:17:40;;;;;;;7.88;4.82;;;15.50;99.90;;;;;;4993889;28;20121;-79
2022/08/07 07:20:20;;;;;;;10.93;5.28;;;15.50;99.90;;;;;;4993694;28;20085;-80
2022/08/07 07:22:47;;;;;;;8.23;5.45;;;15.60;99.90;;;;;;4978052;28;20050;-79
2022/08/07 07:25:15;;;;;;;6.32;4.57;;;15.70;99.90;;;;;;4977523;28;20100;-79
2022/08/07 07:27:54;;;;;;;7.72;4.75;;;15.70;99.90;;;;;;4993041;28;20133;-79
2022/08/07 07:30:26;;;;;;;8.27;5.20;;;15.80;99.90;;;;;;4977782;28;20048;-80
2022/08/07 07:32:56;;;;;;;6.90;4.43;;;15.80;99.90;;;;;;4993170;28;20129;-80
2022/08/07 07:35:23;;;;;;;8.30;4.63;;;15.90;99.90;;;;;;4993299;28;20046;-80
2022/08/07 07:37:51;;;;;;;5.47;3.13;;;16.10;99.90;;;;;;4977118;28;20455;-79
2022/08/07 07:40:19;;;;;;;4.68;3.25;;;16.10;99.90;;;;;;4961073;28;20125;-79
2022/08/07 07:42:50;;;;;;;4.68;3.42;;;16.30;99.90;;;;;;4977020;28;20058;-81
2022/08/07 07:45:18;;;;;;;4.85;3.40;;;16.30;99.90;;;;;;4994030;28;20038;-80
2022/08/07 07:47:46;;;;;;;5.50;3.45;;;16.30;99.90;;;;;;4977278;28;20042;-79
2022/08/07 07:50:14;;;;;;;6.75;3.35;;;16.30;99.90;;;;;;4976956;28;20089;-80
2022/08/07 07:52:44;;;;;;;6.03;2.63;;;16.40;99.90;;;;;;4993087;28;20050;-83
2022/08/07 07:55:12;;;;;;;3.78;1.92;;;16.40;99.90;;;;;;4993923;28;20096;-77
2022/08/07 07:57:39;;;;;;;5.97;2.90;;;16.50;99.90;;;;;;4993732;28;20042;-81
2022/08/07 08:00:07;;;;;;;3.22;2.50;;;16.50;99.90;;;;;;4960609;28;20107;-81
2022/08/07 08:02:36;;;;;;;3.60;2.30;;;16.60;99.90;;;;;;4961189;28;20054;-82
2022/08/07 08:05:05;;;;;;;2.67;1.88;;;16.10;99.90;;;;;;4977200;28;20058;-79
2022/08/07 08:07:32;;;;;;;5.25;2.65;;;16.70;99.90;;;;;;4992854;28;20561;-79
2022/08/07 08:10:00;;;;;;;5.30;3.15;;;16.70;99.90;;;;;;4976906;28;20050;-79
2022/08/07 08:12:26;;;;;;;4.25;2.38;;;16.80;99.90;;;;;;4976470;28;20046;-79
2022/08/07 08:14:52;;;;;;;4.03;1.98;;;16.80;99.90;;;;;;4976703;28;20521;-78
2022/08/07 08:17:19;;;;;;;3.65;2.35;;;16.90;99.90;;;;;;4977087;28;20042;-79
2022/08/07 08:19:46;;;;;;;4.22;2.20;;;16.90;99.90;;;;;;4993026;28;20051;-82
2022/08/07 08:27:45;;;;;;;6.13;2.80;;;17.00;99.90;;;;;;4996949;28;20058;-82
2022/08/07 08:30:13;;;;;;;3.50;2.17;;;17.10;99.90;;;;;;4996446;28;20173;-81
2022/08/07 08:32:42;;;;;;;2.72;1.50;;;17.10;99.90;;;;;;4964075;28;20050;-82
2022/08/07 08:35:12;;;;;;;3.55;2.28;;;17.20;99.90;;;;;;4996910;28;20058;-82
2022/08/07 08:37:40;;;;;;;2.83;2.08;;;17.30;99.90;;;;;;4996588;28;20487;-82
2022/08/07 08:40:12;;;;;;;3.30;2.25;;;17.30;99.90;;;;;;4964110;28;20050;-83
2022/08/07 08:42:56;;;;;;;3.30;2.25;;;17.40;99.90;;;;;;4996809;28;20046;-82
2022/08/07 08:45:33;;;;;;;1.55;1.17;;;17.40;99.90;;;;;;4996960;28;20113;-82
2022/08/07 08:48:26;;;;;;;3.35;1.00;;;17.40;99.90;;;;;;4980472;28;20054;-85
2022/08/07 08:51:07;;;;;;;2.38;1.55;;;17.50;99.90;;;;;;4980143;28;20047;-86
2022/08/07 08:53:53;;;;;;;2.03;1.33;;;17.50;99.90;;;;;;4980315;28;20137;-84
2022/08/07 08:56:34;;;;;;;4.15;1.75;;;17.60;99.90;;;;;;4980863;28;20050;-84
2022/08/07 08:59:36;;;;;;;1.42;1.17;;;17.60;99.90;;;;;;4996209;28;20057;-86
2022/08/07 09:02:44;;;;;;;2.17;1.30;;;17.60;99.90;;;;;;4995695;28;20046;-85
2022/08/07 09:05:29;;;;;;;2.38;1.30;;;17.60;99.90;;;;;;4958378;28;20065;-86
2022/08/07 09:08:17;;;;;;;2.13;1.10;;;17.70;99.90;;;;;;4996886;28;20050;-83
2022/08/07 09:11:01;;;;;;;1.92;1.40;;;17.80;99.90;;;;;;4996182;28;20046;-84
2022/08/07 09:13:46;;;;;;;2.83;1.27;;;17.60;99.90;;;;;;4996269;28;20137;-85
2022/08/07 09:16:46;;;;;;;1.45;1.10;;;18.00;99.90;;;;;;4996710;28;20061;-86
2022/08/07 09:19:24;;;;;;;2.20;1.60;;;18.10;99.90;;;;;;4979491;28;20060;-86
2022/08/07 09:21:55;;;;;;;3.17;1.10;;;18.20;99.90;;;;;;4979357;28;20042;-85
2022/08/07 09:24:21;;;;;;;2.85;1.13;;;18.20;99.90;;;;;;4980411;28;20082;-84
2022/08/07 09:27:09;;;;;;;2.17;1.13;;;18.30;99.90;;;;;;4979735;28;20152;-85
2022/08/07 09:29:59;;;;;;;2.42;1.10;;;18.50;99.90;;;;;;4980133;28;20046;-83
2022/08/07 09:32:51;;;;;;;1.80;1.15;;;18.40;99.90;;;;;;4996029;28;20030;-82
2022/08/07 09:35:48;;;;;;;1.73;1.17;;;18.40;99.90;;;;;;4955915;28;20050;-84
2022/08/07 09:38:46;;;;;;;1.70;1.25;;;18.50;99.90;;;;;;4979093;28;20042;-86
2022/08/07 09:41:31;;;;;;;1.75;1.20;;;18.50;99.90;;;;;;4952210;28;20055;-83
2022/08/07 09:44:15;;;;;;;1.23;0.93;;;18.60;99.90;;;;;;4995147;28;20038;-84
2022/08/07 09:46:46;;;;;;;1.52;1.15;;;18.70;99.90;;;;;;4979054;28;20053;-84
2022/08/07 09:49:41;;;;;;;2.03;0.90;;;18.70;99.90;;;;;;4995362;28;20042;-86
2022/08/07 09:52:41;;;;;;;1.55;1.05;;;18.80;99.90;;;;;;4995721;28;20038;-88
2022/08/07 09:55:28;;;;;;;1.75;1.10;;;18.90;99.90;;;;;;4989351;28;20072;-85
2022/08/07 09:58:28;;;;;;;3.15;1.13;;;18.90;99.90;;;;;;4978636;28;20448;-84
2022/08/07 10:01:26;;;;;;;2.25;1.10;;;18.90;99.90;;;;;;4978258;28;20041;-84
2022/08/07 10:04:27;;;;;;;2.63;1.30;;;18.90;99.90;;;;;;4995393;28;20054;-83
2022/08/07 10:06:52;;;;;;;2.00;1.30;;;18.90;99.90;;;;;;4977880;28;20157;-78
2022/08/07 10:09:33;;;;;;;3.08;1.40;;;18.90;99.90;;;;;;4978135;28;20077;-77
2022/08/07 10:12:25;;;;;;;1.48;1.00;;;18.90;99.90;;;;;;4977383;28;20050;-84
2022/08/07 10:14:51;;;;;;;2.35;1.00;;;19.00;99.90;;;;;;4978847;28;20042;-86
2022/08/07 10:17:40;;;;;;;1.58;0.80;;;19.10;99.90;;;;;;4977448;28;20539;-84
2022/08/07 10:20:30;;;;;;;1.27;1.00;;;19.20;99.90;;;;;;4993083;28;20386;-84
2022/08/07 10:23:24;;;;;;;1.42;1.00;;;19.20;99.90;;;;;;4977843;28;20038;-87
2022/08/07 10:26:22;;;;;;;3.88;1.10;;;19.20;99.90;;;;;;4978198;28;20049;-85
2022/08/07 10:29:02;;;;;;;2.05;0.95;;;19.30;99.90;;;;;;4994451;28;20038;-82
2022/08/07 10:31:44;;;;;;;1.27;1.08;;;19.40;99.90;;;;;;4977799;28;20053;-84
2022/08/07 10:34:46;;;;;;;1.50;0.90;;;19.40;99.90;;;;;;4977573;28;20046;-82
2022/08/07 10:37:26;;;;;;;1.92;1.10;;;19.50;99.90;;;;;;4993847;28;20037;-84
2022/08/07 10:40:20;;;;;;;2.40;1.10;;;19.50;99.90;;;;;;4994550;28;20046;-82
2022/08/07 10:42:59;;;;;;;4.70;1.95;;;19.50;99.90;;;;;;4993717;28;20042;-82
2022/08/07 10:45:34;;;;;;;1.98;1.30;;;19.50;99.90;;;;;;4993112;28;20047;-83
2022/08/07 10:48:22;;;;;;;2.30;1.00;;;19.50;99.90;;;;;;4976911;28;20042;-79
2022/08/07 10:50:58;;;;;;;1.30;0.90;;;19.40;99.90;;;;;;4976866;28;20042;-83
2022/08/07 10:53:38;;;;;;;1.90;1.08;;;19.50;99.90;;;;;;4994289;28;20038;-84
2022/08/07 10:56:14;;;;;;;2.97;1.00;;;19.50;99.70;;;;;;4994530;28;20129;-83
2022/08/07 10:58:48;;;;;;;1.40;1.10;;;19.70;99.30;;;;;;4993412;28;20046;-83
2022/08/07 11:01:30;;;;;;;1.85;0.90;;;19.70;99.10;;;;;;4993356;28;20045;-82
2022/08/07 11:04:07;;;;;;;;;;;19.80;99.50;;;;;;4977743;28;20049;-82
2022/08/07 11:07:00;;;;;;;1.30;0.90;;;19.70;99.90;;;;;;4977292;28;19925;-83
2022/08/07 11:09:37;;;;;;;1.10;0.95;;;19.70;98.90;;;;;;4993087;28;20042;-85
2022/08/07 11:12:12;;;;;;;1.42;0.82;;;19.80;98.90;;;;;;4992411;28;20065;-83
2022/08/07 11:15:04;;;;;;;1.60;0.80;;;19.80;98.70;;;;;;4993384;28;20046;-83
2022/08/07 11:17:47;;;;;;;2.13;0.80;;;19.90;97.80;;;;;;4968235;28;20091;-82
2022/08/07 11:20:19;;;;;;;;;;;19.90;98.90;;;;;;4977149;28;20475;-81
2022/08/07 11:23:03;;;;;;;0.90;0.75;;;20.00;96.30;;;;;;4993025;28;19918;-83
2022/08/07 11:25:41;;;;;;;2.03;0.80;;;20.00;97.50;;;;;;4976805;28;20104;-83
2022/08/07 11:28:28;;;;;;;2.72;1.00;;;20.00;95.70;;;;;;4993821;28;20137;-85
2022/08/07 11:31:06;;;;;;;1.20;1.10;;;20.00;96.50;;;;;;4992948;28;20042;-86
2022/08/07 11:33:53;;;;;;;2.00;0.90;;;20.40;99.80;;;;;;4993766;28;20045;-83
2022/08/07 11:36:48;;;;;;;1.30;0.73;;;20.30;99.90;;;;;;4993312;28;20120;-82
2022/08/07 11:39:51;;;;;;;1.17;0.70;;;20.20;95.00;;;;;;4976940;28;20043;-83
2022/08/07 11:42:20;;;;;;;;;;;20.30;95.20;;;;;;4992978;28;20053;-84
2022/08/07 11:44:51;;;;;;;2.55;0.82;;;20.30;94.90;;;;;;4976542;28;20308;-82
2022/08/07 11:47:40;;;;;;;1.92;0.77;;;20.40;94.70;;;;;;4977075;28;20411;-85
2022/08/07 11:50:15;;;;;;;0.98;0.75;;;20.40;94.00;;;;;;4977593;28;20046;-83
2022/08/07 11:52:48;;;;;;;2.15;0.98;;;20.40;93.70;;;;;;4992928;28;20518;-83
2022/08/07 11:55:34;;;;;;;2.47;0.80;;;20.40;93.30;;;;;;4993057;28;20466;-83
2022/08/07 11:58:37;;;;;;;1.95;0.80;;;20.50;93.00;;;;;;4995448;28;20038;-82
2022/08/07 12:01:11;;;;;;;0.95;0.60;;;20.60;91.60;;;;;;4980562;28;20101;-84
2022/08/07 12:03:50;;;;;;;1.50;0.95;;;20.60;92.80;;;;;;4997091;28;20494;-82
2022/08/07 12:06:27;;;;;;;0.88;0.75;;;20.60;93.40;;;;;;4996406;28;20093;-84
2022/08/07 12:09:24;;;;;;;1.38;0.50;;;20.70;92.80;;;;;;4997045;28;20054;-82
2022/08/07 12:12:02;;;;;;;0.80;0.55;;;20.70;91.00;;;;;;4995168;28;20181;-85
2022/08/07 12:14:36;;;;;;;1.35;0.70;;;20.80;89.70;;;;;;4980811;28;20051;-86
2022/08/07 12:17:11;;;;;;;1.05;0.70;;;20.80;89.80;;;;;;4996086;28;20046;-85
2022/08/07 12:20:15;;;;;;;1.35;0.60;;;20.90;90.70;;;;;;4980549;28;20129;-86
2022/08/07 12:22:48;;;;;;;0.70;0.60;;;21.10;90.30;;;;;;4984073;28;20486;-86
2022/08/07 12:25:51;;;;;;;0.70;0.50;;;21.20;90.90;;;;;;4996206;28;20115;-86
2022/08/07 12:28:22;;;;;;;1.10;0.70;;;21.20;91.10;;;;;;4980230;28;20046;-86
2022/08/07 12:30:52;;;;;;;2.80;0.83;;;20.60;90.90;;;;;;4996682;28;20042;-87
2022/08/07 12:33:23;;;;;;;1.15;0.80;;;21.20;90.90;;;;;;4980361;28;20050;-85
2022/08/07 12:35:51;;;;;;;1.48;0.70;;;21.30;90.80;;;;;;4996129;28;20129;-84
2022/08/07 12:38:19;;;;;;;2.33;0.90;;;21.20;90.60;;;;;;4996483;28;20039;-85
2022/08/07 12:40:47;;;;;;;1.00;0.80;;;21.30;90.90;;;;;;4995524;28;20045;-86
2022/08/07 12:43:27;;;;;;;1.23;0.77;;;21.50;90.40;;;;;;4979132;28;20049;-88
2022/08/07 12:46:26;;;;;;;2.20;0.80;;;21.30;89.10;;;;;;4996165;28;20050;-85
2022/08/07 12:49:18;;;;;;;2.15;0.80;;;21.50;85.00;;;;;;4979517;28;20065;-88
2022/08/07 12:52:00;;;;;;;1.42;0.75;;;21.60;86.10;;;;;;4979693;28;20139;-88
2022/08/07 12:54:34;;;;;;;1.35;0.80;;;21.70;83.70;;;;;;4996342;28;20046;-90
2022/08/07 12:57:02;;;;;;;1.45;0.70;;;21.70;82.90;;;;;;4995854;28;20103;-85
2022/08/07 12:59:30;;;;;;;1.58;0.80;;;21.70;83.90;;;;;;4979145;28;20486;-85
2022/08/07 13:02:11;;;;;;;0.75;0.60;;;21.80;84.90;;;;;;4995067;28;20042;-89
2022/08/07 13:04:47;;;;;;;2.58;0.80;;;21.80;85.10;;;;;;4995472;28;20064;-85
2022/08/07 13:07:33;;;;;;;1.30;0.90;;;21.80;85.30;;;;;;4978807;28;20537;-85
2022/08/07 13:10:09;;;;;;;1.92;0.70;;;21.80;84.80;;;;;;4996443;28;20363;-86
2022/08/07 13:12:40;;;;;;;1.67;0.80;;;21.80;85.50;;;;;;4978851;28;20058;-85
2022/08/07 13:15:22;;;;;;;1.05;0.80;;;21.80;84.10;;;;;;4979673;28;20054;-85
2022/08/07 13:18:17;;;;;;;1.37;0.80;;;21.90;83.40;;;;;;4995651;28;20042;-85
2022/08/07 13:20:49;;;;;;;0.85;0.70;;;21.80;83.60;;;;;;4995222;28;20105;-79
2022/08/07 13:23:41;;;;;;;0.82;0.50;;;21.90;82.70;;;;;;4979481;28;20046;-84